Time;durP1;ratioP1;P1;durP2;ratioP2;P2;SDS_P1;SDS_P2;PMS_P1;PMS_P2;Temp;Humidity;BMP_temperature;BMP_pressure;BME280_temperature;BME280_humidity;BME280_pressure;Samples;Min_cycle;Max_cycle;Signal;HPM_P1;HPM_P2
2022/02/04 00:04:33;;;;;;;8.30;4.50;;;;;;;-0.87;54.98;100797.05;117249;1182;21857;-51
2022/02/04 00:07:39;;;;;;;9.20;4.80;;;;;;;-0.90;54.92;100795.24;117200;1182;22951;-61
2022/02/04 00:21:43;;;;;;;8.50;4.30;;;;;;;-1.04;55.14;100777.94;117306;1186;23482;-62
2022/02/04 00:24:13;;;;;;;8.60;4.90;;;;;;;-1.07;55.03;100772.14;117286;1186;21851;-62
2022/02/04 00:26:50;;;;;;;;;;;;;;;-1.10;54.99;100771.54;117203;1185;23714;-62
2022/02/04 00:29:25;;;;;;;8.50;4.40;;;;;;;-1.12;55.26;100775.55;117109;1179;21904;-61
2022/02/04 00:32:01;;;;;;;9.00;4.30;;;;;;;-1.17;54.89;100778.64;117187;1182;21856;-62
2022/02/04 00:34:36;;;;;;;8.30;4.80;;;;;;;-1.17;55.03;100777.75;117220;1183;24218;-61
2022/02/04 00:37:32;;;;;;;7.90;4.50;;;;;;;-1.19;54.96;100778.55;117199;1176;21861;-62
2022/02/04 00:40:10;;;;;;;7.60;4.40;;;;;;;-1.20;54.91;100782.80;117210;1186;21858;-60
2022/02/04 00:42:39;;;;;;;8.20;4.70;;;;;;;-1.23;55.00;100786.63;117216;1186;22073;-61
2022/02/04 00:45:50;;;;;;;11.20;5.20;;;;;;;-1.27;55.00;100788.00;117148;1186;22949;-50
2022/02/04 00:48:37;;;;;;;7.10;4.20;;;;;;;-1.29;55.13;100786.04;117329;1185;21866;-62
2022/02/04 00:51:34;;;;;;;7.40;3.90;;;;;;;-1.29;54.99;100788.11;117236;1185;22804;-50
2022/02/04 01:26:58;;;;;;;9.10;4.30;;;;;;;-1.19;55.03;100785.23;116972;1182;21876;-50
2022/02/04 01:29:33;;;;;;;9.70;5.10;;;;;;;-1.25;55.07;100782.59;117183;1182;21842;-50
2022/02/04 01:32:01;;;;;;;9.10;4.80;;;;;;;-1.29;54.99;100785.52;117099;1188;21922;-50
2022/02/04 01:34:29;;;;;;;7.90;4.70;;;;;;;-1.32;55.17;100787.98;117127;1186;23449;-61
2022/02/04 01:36:58;;;;;;;7.90;4.10;;;;;;;-1.37;55.07;100787.80;117143;1178;23450;-61
2022/02/04 01:39:26;;;;;;;9.80;5.10;;;;;;;-1.41;55.16;100786.56;117209;1182;23473;-61
2022/02/04 01:41:54;;;;;;;7.90;4.20;;;;;;;-1.40;54.96;100787.64;117214;1176;21855;-50
2022/02/04 01:44:27;;;;;;;7.80;4.20;;;;;;;-1.43;55.02;100784.25;117102;1183;21873;-62
2022/02/04 01:46:56;;;;;;;9.30;5.10;;;;;;;-1.47;55.02;100785.30;117097;1186;21857;-52
2022/02/04 01:49:27;;;;;;;8.80;4.40;;;;;;;-1.48;55.01;100783.35;117129;1176;21868;-61
2022/02/04 01:51:55;;;;;;;8.20;4.60;;;;;;;-1.51;54.93;100784.95;117236;1185;22645;-62
2022/02/04 01:54:24;;;;;;;7.50;4.30;;;;;;;-1.54;55.20;100787.05;117192;1186;23483;-50
2022/02/04 01:56:52;;;;;;;9.00;4.30;;;;;;;-1.58;55.20;100789.29;117225;1186;21853;-61
2022/02/04 01:59:20;;;;;;;8.00;4.20;;;;;;;-1.64;55.20;100793.33;117121;1183;22652;-50
2022/02/04 02:01:48;;;;;;;7.70;4.60;;;;;;;-1.70;54.98;100789.81;117162;1182;21842;-51
2022/02/04 02:04:18;;;;;;;7.60;4.30;;;;;;;-1.76;54.92;100796.24;117200;1179;21965;-62
2022/02/04 02:06:59;;;;;;;9.00;4.70;;;;;;;-1.82;55.09;100800.66;117204;1183;21840;-50
2022/02/04 02:09:57;;;;;;;9.40;4.40;;;;;;;-1.87;55.13;100795.77;117183;1186;21873;-61
2022/02/04 02:12:19;;;;;;;8.30;4.10;;;;;;;-1.93;54.93;100791.70;117193;1186;23475;-50
2022/02/04 02:14:56;;;;;;;9.80;5.00;;;;;;;-1.99;54.95;100789.55;117242;1186;21867;-50
2022/02/04 02:43:00;;;;;;;7.10;4.10;;;;;;;-2.30;55.03;100818.27;117221;1181;22623;-50
2022/02/04 02:58:07;;;;;;;8.40;4.40;;;;;;;-2.27;55.14;100815.64;117172;1185;22649;-61
2022/02/04 03:03:17;;;;;;;11.60;5.00;;;;;;;-2.30;55.14;100815.30;117175;1185;23487;-62
2022/02/04 03:05:45;;;;;;;8.70;5.00;;;;;;;-2.32;55.17;100817.95;117183;1186;23445;-50
2022/02/04 03:08:14;;;;;;;7.30;4.50;;;;;;;-2.33;55.21;100820.33;117105;1179;23480;-61
2022/02/04 03:10:42;;;;;;;8.60;4.50;;;;;;;-2.33;55.14;100819.82;117151;1178;23467;-49
2022/02/04 03:13:12;;;;;;;;;;;;;;;-2.32;55.15;100824.02;117313;1185;21884;-61
2022/02/04 03:15:58;;;;;;;9.20;4.80;;;;;;;-2.33;55.00;100820.84;117192;1182;23479;-49
2022/02/04 03:18:30;;;;;;;9.70;4.70;;;;;;;-2.35;55.07;100818.33;117145;1182;23478;-50
2022/02/04 03:21:06;;;;;;;9.30;5.40;;;;;;;-2.38;55.12;100820.42;117208;1186;24154;-61
2022/02/04 03:23:40;;;;;;;8.90;4.40;;;;;;;-2.41;55.09;100820.48;117199;1176;23251;-62
2022/02/04 03:26:14;;;;;;;9.10;4.30;;;;;;;-2.43;55.07;100826.41;117098;1186;22655;-49
2022/02/04 03:28:42;;;;;;;8.10;4.60;;;;;;;-2.44;54.98;100827.73;117188;1186;21906;-62
2022/02/04 03:31:12;;;;;;;9.20;5.40;;;;;;;-2.47;55.10;100826.52;117232;1182;21927;-61
2022/02/04 03:33:42;;;;;;;12.10;5.40;;;;;;;-2.49;55.12;100825.41;117199;1183;24711;-50
2022/02/04 03:36:11;;;;;;;9.00;4.80;;;;;;;-2.46;55.25;100823.15;117158;1186;23682;-62
2022/02/04 03:38:39;;;;;;;8.90;5.10;;;;;;;-2.40;55.29;100829.09;117289;1183;23473;-61
2022/02/04 03:41:07;;;;;;;9.50;5.40;;;;;;;-2.34;55.33;100831.48;117331;1186;22989;-49
2022/02/04 03:43:36;;;;;;;11.60;5.70;;;;;;;-2.27;55.38;100838.66;117264;1185;21895;-62
2022/02/04 03:46:07;;;;;;;10.60;6.00;;;;;;;-2.21;55.35;100839.96;117183;1186;23577;-49
2022/02/04 03:48:35;;;;;;;11.70;5.30;;;;;;;-2.18;55.29;100844.39;117199;1186;23441;-61
2022/02/04 03:51:04;;;;;;;9.80;5.20;;;;;;;-2.17;55.33;100849.23;117199;1183;22992;-61
2022/02/04 03:53:32;;;;;;;12.30;5.40;;;;;;;-2.19;55.22;100848.31;117181;1183;23526;-62
2022/02/04 03:56:00;;;;;;;8.70;5.10;;;;;;;-2.21;55.27;100851.98;117177;1186;21860;-49
2022/02/04 03:58:31;;;;;;;9.60;5.20;;;;;;;-2.23;55.24;100851.75;117178;1182;23456;-49
2022/02/04 04:00:59;;;;;;;10.80;5.80;;;;;;;-2.21;55.25;100855.61;117156;1176;22620;-61
2022/02/04 04:03:28;;;;;;;10.40;5.10;;;;;;;-2.20;55.29;100857.71;117204;1179;23169;-49
2022/02/04 04:05:57;;;;;;;11.30;5.50;;;;;;;-2.19;55.41;100856.73;117175;1186;23468;-61
2022/02/04 04:08:25;;;;;;;10.60;5.20;;;;;;;-2.17;55.40;100854.23;117163;1186;22623;-58
2022/02/04 04:10:54;;;;;;;11.50;5.50;;;;;;;-2.16;55.31;100855.85;117157;1178;23467;-62
2022/02/04 04:13:23;;;;;;;8.70;5.40;;;;;;;-2.16;55.46;100855.15;117225;1182;23590;-62
2022/02/04 04:15:51;;;;;;;10.00;5.20;;;;;;;-2.16;55.37;100856.54;117220;1182;23488;-50
2022/02/04 04:18:20;;;;;;;10.00;5.40;;;;;;;-2.15;55.37;100853.14;117093;1187;23012;-49
2022/02/04 04:20:48;;;;;;;9.50;5.40;;;;;;;-2.14;55.37;100853.17;117125;1186;21852;-61
2022/02/04 04:23:16;;;;;;;9.80;5.70;;;;;;;-2.14;55.51;100847.36;117145;1185;22894;-62
2022/02/04 04:25:45;;;;;;;11.60;5.40;;;;;;;-2.13;55.36;100847.92;117155;1185;22644;-62
2022/02/04 04:28:15;;;;;;;11.20;5.70;;;;;;;-2.13;55.30;100847.21;117197;1185;21857;-62
2022/02/04 04:30:43;;;;;;;12.40;6.00;;;;;;;-2.13;55.38;100847.72;117167;1183;22651;-62
2022/02/04 04:33:12;;;;;;;10.40;5.70;;;;;;;-2.12;55.28;100849.50;117198;1182;24168;-49
2022/02/04 04:35:42;;;;;;;11.90;6.50;;;;;;;-2.12;55.38;100850.72;117188;1185;22009;-62
2022/02/04 04:38:38;;;;;;;8.80;5.10;;;;;;;-2.11;55.28;100850.42;117221;1186;22792;-62
2022/02/04 04:41:13;;;;;;;9.90;5.20;;;;;;;-2.10;55.42;100852.36;117158;1182;22931;-49
2022/02/04 05:29:04;;;;;;;10.70;5.30;;;;;;;-1.62;55.64;100874.30;117179;1185;23484;-66
2022/02/04 05:31:35;;;;;;;10.30;5.30;;;;;;;-1.54;55.84;100881.20;117307;1185;21878;-49
2022/02/04 05:34:04;;;;;;;13.90;6.00;;;;;;;-1.44;55.92;100878.02;117276;1186;22948;-48
2022/02/04 05:36:35;;;;;;;12.20;5.70;;;;;;;-1.37;55.90;100883.52;117291;1183;21858;-67
2022/02/04 05:39:04;;;;;;;9.60;5.50;;;;;;;-1.29;55.90;100879.19;117168;1182;24161;-49
2022/02/04 05:41:34;;;;;;;9.40;5.00;;;;;;;-1.22;56.03;100875.73;117296;1182;23449;-50
2022/02/04 05:44:07;;;;;;;10.50;5.40;;;;;;;-1.13;56.12;100881.95;117359;1183;22933;-66
2022/02/04 05:46:53;;;;;;;10.00;5.60;;;;;;;-1.07;56.13;100875.33;117311;1185;21863;-51
2022/02/04 05:49:23;;;;;;;12.40;5.70;;;;;;;-0.97;56.20;100885.39;117165;1186;23563;-49
2022/02/04 05:52:07;;;;;;;;;;;;;;;-0.86;56.08;100882.77;117353;1183;23566;-67
2022/02/04 05:57:36;;;;;;;9.40;4.90;;;;;;;-0.62;55.87;100880.83;117335;1183;23451;-48
2022/02/04 06:00:28;;;;;;;10.60;5.00;;;;;;;-0.49;56.35;100881.70;117312;1186;22664;-67
2022/02/04 06:08:44;;;;;;;16.00;7.20;;;;;;;-0.14;56.36;100897.91;118755;1182;23450;-66
2022/02/04 06:14:22;;;;;;;9.60;4.10;;;;;;;-0.02;56.03;100900.62;119263;1182;22092;-65
2022/02/04 06:22:21;;;;;;;9.50;4.30;;;;;;;0.01;56.15;100891.58;117147;1183;22931;-64
2022/02/04 06:24:51;;;;;;;8.20;4.50;;;;;;;0.04;55.92;100891.88;117323;1182;21983;-51
2022/02/04 06:27:21;;;;;;;8.30;4.40;;;;;;;0.05;55.81;100891.75;117225;1183;23913;-63
2022/02/04 06:29:50;;;;;;;;;;;;;;;0.08;55.67;100901.16;117197;1186;22166;-64
2022/02/04 06:32:19;;;;;;;8.00;3.90;;;;;;;0.08;55.76;100900.66;117317;1186;21888;-63
2022/02/04 06:34:47;;;;;;;10.20;4.60;;;;;;;0.11;55.84;100902.17;117251;1186;21854;-64
2022/02/04 06:37:15;;;;;;;8.60;4.30;;;;;;;0.13;55.91;100903.27;117271;1176;21855;-63
2022/02/04 06:39:43;;;;;;;7.90;4.40;;;;;;;0.16;55.83;100907.36;117183;1185;23392;-61
2022/02/04 06:42:22;;;;;;;7.20;4.20;;;;;;;0.16;55.91;100911.69;117154;1186;23088;-63
2022/02/04 06:44:51;;;;;;;9.70;5.10;;;;;;;0.19;55.75;100912.81;117210;1182;23555;-50
2022/02/04 06:47:20;;;;;;;9.80;4.60;;;;;;;0.23;55.95;100910.55;117294;1182;24209;-63
2022/02/04 06:49:48;;;;;;;8.70;4.20;;;;;;;0.25;55.91;100906.16;117223;1182;23694;-63
2022/02/04 06:52:16;;;;;;;8.00;4.30;;;;;;;0.28;55.93;100901.62;117201;1182;23467;-51
2022/02/04 06:54:45;;;;;;;8.90;4.50;;;;;;;0.33;56.03;100904.01;117176;1182;23476;-50
2022/02/04 06:57:13;;;;;;;8.40;4.20;;;;;;;0.35;55.93;100902.21;117276;1185;21857;-64
2022/02/04 06:59:44;;;;;;;6.70;4.20;;;;;;;0.38;55.80;100899.88;117211;1183;21872;-50
2022/02/04 07:02:13;;;;;;;7.00;3.90;;;;;;;0.39;55.87;100898.23;117201;1181;23465;-63
2022/02/04 07:04:43;;;;;;;6.90;4.20;;;;;;;0.42;55.93;100899.04;117213;1182;21855;-51
2022/02/04 07:07:12;;;;;;;8.40;4.50;;;;;;;0.46;56.09;100898.96;117280;1183;23446;-64
2022/02/04 07:09:56;;;;;;;7.80;4.10;;;;;;;0.47;55.72;100902.08;117222;1186;23554;-51
2022/02/04 07:12:32;;;;;;;9.90;4.70;;;;;;;0.50;56.25;100906.55;117060;1187;24252;-51
2022/02/04 07:18:02;;;;;;;8.40;3.80;;;;;;;0.57;55.92;100899.90;117198;1182;23468;-51
2022/02/04 07:20:30;;;;;;;8.50;4.30;;;;;;;0.61;56.19;100894.01;117202;1183;22919;-51
2022/02/04 07:22:59;;;;;;;7.60;3.90;;;;;;;0.64;56.08;100898.09;117256;1181;22915;-64
2022/02/04 07:25:27;;;;;;;6.90;3.90;;;;;;;0.70;56.33;100891.91;117177;1182;22863;-49
2022/02/04 07:27:55;;;;;;;6.70;3.90;;;;;;;0.75;55.99;100898.48;117062;1186;22651;-65
2022/02/04 07:30:41;;;;;;;6.80;3.80;;;;;;;0.78;56.04;100903.93;117225;1180;23562;-64
2022/02/04 07:33:19;;;;;;;7.10;4.10;;;;;;;0.82;56.14;100906.52;117260;1186;22644;-51
2022/02/04 07:41:05;;;;;;;5.70;3.20;;;;;;;1.00;56.21;100889.02;117132;1179;22725;-60
2022/02/04 07:43:34;;;;;;;7.20;3.50;;;;;;;1.03;56.08;100889.61;117202;1186;21882;-62
2022/02/04 07:46:03;;;;;;;6.80;3.70;;;;;;;1.08;56.11;100887.89;117268;1179;23528;-51
2022/02/04 07:48:33;;;;;;;;;;;;;;;1.13;56.15;100891.34;117137;1179;21974;-52
2022/02/04 07:51:01;;;;;;;6.20;2.90;;;;;;;1.18;56.00;100890.47;117293;1185;23496;-52
2022/02/04 07:53:31;;;;;;;6.20;3.10;;;;;;;1.24;56.03;100891.17;117301;1182;23461;-62
2022/02/04 07:55:59;;;;;;;7.80;4.00;;;;;;;1.27;55.81;100894.58;117212;1186;21858;-62
2022/02/04 07:58:28;;;;;;;6.20;3.10;;;;;;;1.30;55.88;100896.59;117137;1180;23040;-51
2022/02/04 08:00:59;;;;;;;6.10;3.20;;;;;;;1.34;55.82;100898.45;117286;1183;23455;-52
2022/02/04 08:03:34;;;;;;;7.80;4.00;;;;;;;1.37;55.80;100895.76;117177;1186;22465;-63
2022/02/04 08:06:10;;;;;;;9.00;4.60;;;;;;;1.38;55.75;100897.20;117070;1186;23448;-51
2022/02/04 08:08:52;;;;;;;8.60;4.90;;;;;;;1.40;55.84;100897.45;117180;1182;21845;-63
2022/02/04 08:14:15;;;;;;;6.90;3.80;;;;;;;1.50;55.56;100894.30;117131;1185;23579;-62
2022/02/04 08:17:10;;;;;;;6.80;3.40;;;;;;;1.49;55.79;100895.47;117066;1187;21883;-53
2022/02/04 08:22:33;;;;;;;6.00;3.30;;;;;;;1.64;56.08;100891.48;117118;1182;21857;-51
2022/02/04 08:54:58;;;;;;;6.90;3.90;;;;;;;2.46;55.93;100872.45;116895;1185;21922;-62
2022/02/04 08:57:50;;;;;;;7.50;3.90;;;;;;;2.56;56.13;100873.29;116964;1186;22948;-63
2022/02/04 09:00:44;;;;;;;6.80;3.70;;;;;;;2.74;56.31;100870.32;116904;1179;21856;-62
2022/02/04 09:03:28;;;;;;;6.80;3.40;;;;;;;2.92;56.21;100867.33;116933;1188;21869;-62
2022/02/04 09:06:17;;;;;;;6.00;3.10;;;;;;;3.07;56.18;100866.67;117086;1186;23897;-55
2022/02/04 09:08:50;;;;;;;6.60;2.80;;;;;;;3.22;56.19;100862.58;117052;1189;21845;-53
2022/02/04 09:19:48;;;;;;;15.30;3.00;;;;;;;3.88;56.37;100853.71;116627;1188;22278;-61
2022/02/04 09:22:20;;;;;;;5.60;2.40;;;;;;;3.98;56.16;100848.91;116984;1188;23642;-63
2022/02/04 09:24:49;;;;;;;5.30;2.40;;;;;;;4.08;56.02;100843.92;116879;1186;22876;-62
2022/02/04 09:27:17;;;;;;;3.90;2.10;;;;;;;4.13;55.92;100841.25;117088;1188;23452;-53
2022/02/04 09:29:46;;;;;;;5.10;2.30;;;;;;;4.17;55.92;100840.80;116997;1187;23071;-61
2022/02/04 09:32:14;;;;;;;5.60;2.80;;;;;;;4.28;55.97;100832.00;117126;1179;21857;-52
2022/02/04 09:34:42;;;;;;;5.00;2.90;;;;;;;4.45;56.34;100832.52;117137;1183;22797;-62
2022/02/04 09:37:30;;;;;;;4.10;2.10;;;;;;;4.64;56.05;100826.29;117035;1182;23702;-61
2022/02/04 09:39:58;;;;;;;5.00;2.40;;;;;;;4.81;56.23;100821.03;117109;1186;21891;-53
2022/02/04 09:42:27;;;;;;;4.30;2.20;;;;;;;4.97;56.22;100813.66;117101;1186;23475;-62
2022/02/04 09:44:55;;;;;;;4.70;2.50;;;;;;;5.13;56.29;100814.13;117100;1183;21859;-52
2022/02/04 09:47:25;;;;;;;6.30;3.10;;;;;;;5.25;56.03;100815.02;117235;1184;22516;-52
2022/02/04 09:50:14;;;;;;;6.80;2.30;;;;;;;5.39;55.88;100804.63;117021;1183;23555;-61
2022/02/04 10:07:30;;;;;;;4.10;2.20;;;;;;;6.39;55.58;100799.21;117167;1185;22706;-63
2022/02/04 10:16:02;;;;;;;6.00;2.40;;;;;;;6.58;56.00;100790.89;117328;1183;23593;-53
2022/02/04 10:21:04;;;;;;;3.50;2.00;;;;;;;6.76;55.58;100785.13;117234;1185;21860;-62
2022/02/04 10:23:47;;;;;;;6.70;2.50;;;;;;;6.83;55.70;100784.69;117087;1178;23568;-63
2022/02/04 10:26:16;;;;;;;4.60;2.00;;;;;;;6.84;55.34;100782.25;117112;1186;24253;-63
2022/02/04 10:28:45;;;;;;;3.50;1.90;;;;;;;6.72;55.30;100775.34;117275;1186;21857;-53
2022/02/04 10:31:20;;;;;;;3.60;1.90;;;;;;;6.66;55.47;100776.84;117164;1186;21866;-54
2022/02/04 10:33:58;;;;;;;3.90;1.70;;;;;;;6.67;55.39;100775.64;117279;1181;23445;-63
2022/02/04 10:36:56;;;;;;;5.70;3.10;;;;;;;6.72;55.71;100770.09;117146;1186;21868;-54
2022/02/04 10:40:02;;;;;;;3.00;1.70;;;;;;;6.80;55.63;100758.48;117026;1188;21899;-63
2022/02/04 10:50:59;;;;;;;3.40;1.90;;;;;;;7.14;55.41;100747.95;117196;1186;23653;-54
2022/02/04 10:59:01;;;;;;;5.90;3.00;;;;;;;6.87;55.15;100739.35;119334;1183;21805;-63
2022/02/04 11:04:27;;;;;;;3.40;2.00;;;;;;;7.04;55.17;100739.86;117198;1179;23477;-53
2022/02/04 11:09:36;;;;;;;4.40;2.10;;;;;;;7.26;55.42;100735.30;117169;1176;21901;-61
2022/02/04 11:21:46;;;;;;;5.20;2.40;;;;;;;7.39;55.74;100734.69;117065;1188;22969;-52
2022/02/04 11:35:34;;;;;;;5.50;3.00;;;;;;;8.06;55.40;100711.96;117162;1185;22179;-62
2022/02/04 11:52:40;;;;;;;5.50;3.30;;;;;;;7.83;54.58;100702.27;117056;1178;21878;-62
2022/02/04 11:55:09;;;;;;;5.80;3.50;;;;;;;7.59;54.53;100701.81;117115;1186;22944;-54
2022/02/04 11:57:55;;;;;;;7.90;4.30;;;;;;;7.42;54.66;100697.35;117133;1185;24171;-61
2022/02/04 12:00:28;;;;;;;6.20;3.70;;;;;;;7.27;54.16;100695.17;117123;1181;21854;-54
2022/02/04 12:02:57;;;;;;;4.90;3.20;;;;;;;7.05;54.59;100693.63;117182;1186;22880;-61
2022/02/04 12:05:26;;;;;;;9.40;4.20;;;;;;;6.99;54.27;100690.97;117096;1187;23478;-54
2022/02/04 12:08:16;;;;;;;6.10;3.80;;;;;;;6.98;54.54;100682.75;118730;1186;22944;-63
2022/02/04 12:10:54;;;;;;;6.70;3.70;;;;;;;6.97;54.55;100680.32;118045;1181;21858;-55
2022/02/04 12:13:22;;;;;;;7.20;3.70;;;;;;;6.92;54.57;100686.72;117247;1182;23453;-54
2022/02/04 12:16:07;;;;;;;7.40;4.10;;;;;;;6.86;54.39;100684.58;117282;1178;23453;-61
2022/02/04 12:18:51;;;;;;;7.30;4.20;;;;;;;6.76;54.39;100683.80;117103;1186;23549;-54
2022/02/04 12:21:20;;;;;;;11.60;4.60;;;;;;;6.67;54.18;100686.52;117163;1186;21858;-62
2022/02/04 12:23:49;;;;;;;7.70;4.30;;;;;;;6.60;54.54;100688.38;116893;1189;21866;-62
2022/02/04 12:26:33;;;;;;;8.20;4.70;;;;;;;6.55;54.18;100684.33;117179;1185;21866;-54
2022/02/04 12:29:05;;;;;;;5.90;3.80;;;;;;;6.52;54.25;100683.77;117262;1185;21868;-54
2022/02/04 12:31:45;;;;;;;7.30;4.30;;;;;;;6.48;54.43;100683.02;117258;1186;21953;-57
2022/02/04 12:34:17;;;;;;;9.40;5.60;;;;;;;6.38;54.35;100687.30;117217;1182;22938;-62
2022/02/04 12:36:58;;;;;;;7.10;4.60;;;;;;;6.30;54.19;100689.13;117161;1185;21947;-52
2022/02/04 12:39:29;;;;;;;6.80;3.80;;;;;;;6.22;54.38;100690.45;117204;1179;21958;-53
2022/02/04 12:41:59;;;;;;;7.60;5.30;;;;;;;6.16;54.10;100684.98;117018;1188;23477;-60
2022/02/04 12:44:28;;;;;;;6.80;4.10;;;;;;;6.13;54.38;100689.66;117219;1179;23584;-60
2022/02/04 12:47:01;;;;;;;9.50;5.50;;;;;;;6.14;54.16;100692.10;117155;1182;21916;-60
2022/02/04 12:49:32;;;;;;;12.50;7.00;;;;;;;6.12;54.10;100690.52;117091;1186;23452;-53
2022/02/04 12:52:13;;;;;;;25.30;12.10;;;;;;;6.09;53.99;100689.25;117135;1186;22056;-53
2022/02/04 12:54:46;;;;;;;11.50;7.10;;;;;;;6.05;54.06;100689.92;117067;1186;21904;-61
2022/02/04 13:08:39;;;;;;;12.70;6.30;;;;;;;5.85;53.81;100692.96;117170;1184;24159;-53
2022/02/04 13:11:09;;;;;;;14.00;7.20;;;;;;;5.80;54.20;100696.73;117201;1182;24184;-58
2022/02/04 13:13:50;;;;;;;29.90;12.40;;;;;;;5.76;53.95;100695.64;117092;1182;24823;-54
2022/02/04 13:16:39;;;;;;;29.30;12.60;;;;;;;5.76;54.22;100689.88;117275;1186;22832;-65
2022/02/04 13:19:07;;;;;;;20.30;10.80;;;;;;;5.73;54.13;100692.98;117125;1186;24227;-51
2022/02/04 13:21:37;;;;;;;12.20;8.00;;;;;;;5.69;54.19;100690.34;117306;1182;24304;-49
2022/02/04 13:24:06;;;;;;;17.70;7.40;;;;;;;5.71;54.19;100689.48;117300;1185;23484;-53
2022/02/04 13:26:36;;;;;;;;;;;;;;;5.74;54.19;100693.35;117063;1186;21840;-53
2022/02/04 13:29:05;;;;;;;11.70;7.80;;;;;;;5.75;54.22;100696.15;117101;1187;21868;-61
2022/02/04 13:31:36;;;;;;;11.70;7.70;;;;;;;5.74;54.29;100695.61;117149;1186;21855;-53
2022/02/04 13:34:09;;;;;;;27.80;15.60;;;;;;;5.71;54.00;100693.84;116980;1182;21830;-61
2022/02/04 13:36:43;;;;;;;11.90;7.40;;;;;;;5.70;53.93;100694.86;117077;1186;23481;-54
2022/02/04 13:47:45;;;;;;;12.90;8.10;;;;;;;5.58;54.22;100693.67;117217;1179;23552;-52
2022/02/04 13:52:57;;;;;;;8.80;5.70;;;;;;;5.61;54.13;100691.09;117210;1182;21829;-65
2022/02/04 14:01:33;;;;;;;33.20;21.30;;;;;;;5.52;54.10;100690.62;117056;1178;23592;-51
2022/02/04 14:04:00;;;;;;;36.80;23.40;;;;;;;5.53;54.17;100694.11;117315;1186;23475;-52
2022/02/04 14:06:31;;;;;;;35.50;25.90;;;;;;;5.55;54.12;100691.36;117267;1184;21888;-54
2022/02/04 14:09:15;;;;;;;19.10;13.60;;;;;;;5.52;54.12;100689.06;117198;1183;24298;-65
2022/02/04 14:11:43;;;;;;;15.60;12.40;;;;;;;5.46;53.87;100684.48;117088;1182;23128;-65
2022/02/04 14:14:20;;;;;;;15.60;10.10;;;;;;;5.41;53.96;100685.78;117292;1186;21857;-64
2022/02/04 14:49:43;;;;;;;37.20;22.20;;;;;;;5.04;55.16;100689.09;116832;1188;23578;-57
2022/02/04 15:02:52;;;;;;;14.60;8.70;;;;;;;4.93;55.07;100709.77;116801;1189;21872;-58
2022/02/04 15:05:22;;;;;;;18.70;9.70;;;;;;;4.90;55.08;100709.73;116795;1191;22988;-58
2022/02/04 15:08:16;;;;;;;22.70;12.10;;;;;;;4.89;55.17;100710.59;116792;1191;21897;-57
2022/02/04 15:10:48;;;;;;;15.80;9.60;;;;;;;4.87;55.09;100715.77;116764;1189;21907;-58
2022/02/04 15:13:17;;;;;;;;;;;;;;;4.84;55.08;100718.16;116750;1192;22932;-59
2022/02/04 15:15:48;;;;;;;19.50;10.70;;;;;;;4.81;55.02;100722.61;116762;1191;21867;-56
2022/02/04 15:18:16;;;;;;;20.40;12.30;;;;;;;4.77;54.95;100729.68;116799;1189;21861;-55
2022/02/04 15:20:44;;;;;;;22.40;12.20;;;;;;;4.73;54.94;100728.58;116804;1187;23461;-57
2022/02/04 15:23:13;;;;;;;23.20;13.30;;;;;;;4.69;55.17;100730.42;116747;1189;23487;-58
2022/02/04 15:25:42;;;;;;;18.70;9.40;;;;;;;4.67;55.22;100736.64;116815;1188;22964;-58
2022/02/04 15:30:43;;;;;;;19.90;10.50;;;;;;;4.59;55.15;100740.16;116783;1189;23604;-55
2022/02/04 15:33:16;;;;;;;17.10;10.50;;;;;;;4.55;55.16;100742.34;116767;1182;21885;-55
2022/02/04 15:35:44;;;;;;;20.20;11.70;;;;;;;4.51;55.04;100744.70;116858;1189;23514;-55
2022/02/04 15:38:13;;;;;;;18.60;9.40;;;;;;;4.48;55.06;100745.84;117380;1183;21901;-55
2022/02/04 15:40:45;;;;;;;16.10;9.80;;;;;;;4.42;54.96;100745.75;117394;1180;23270;-55
2022/02/04 15:43:14;;;;;;;20.70;11.80;;;;;;;4.37;55.15;100746.52;117341;1182;21845;-59
2022/02/04 15:51:18;;;;;;;30.80;14.70;;;;;;;4.29;55.07;100745.00;117396;1186;21867;-55
2022/02/04 15:54:02;;;;;;;34.20;15.90;;;;;;;4.27;55.01;100743.55;117331;1185;21954;-55
2022/02/04 16:04:32;;;;;;;284.80;100.60;;;;;;;4.08;55.03;100746.30;117344;1185;21875;-56
2022/02/04 16:07:00;;;;;;;209.60;75.30;;;;;;;4.03;55.08;100747.95;117336;1185;23467;-55
2022/02/04 16:09:44;;;;;;;173.10;62.20;;;;;;;3.99;55.19;100753.07;118610;1185;21890;-55
2022/02/04 16:12:35;;;;;;;107.60;39.60;;;;;;;3.99;55.07;100760.88;118708;1180;21855;-55
2022/02/04 16:15:16;;;;;;;53.80;21.80;;;;;;;3.97;55.21;100766.77;117348;1185;24138;-57
2022/02/04 16:17:52;;;;;;;;;;;;;;;3.96;55.28;100769.35;117476;1185;22999;-57
2022/02/04 16:20:39;;;;;;;26.00;11.60;;;;;;;3.99;54.86;100772.36;117412;1186;21864;-58
2022/02/04 16:23:13;;;;;;;32.80;15.80;;;;;;;4.00;54.99;100775.15;117457;1183;23593;-56
2022/02/04 16:28:41;;;;;;;28.50;14.70;;;;;;;4.03;55.22;100776.95;117179;1186;23538;-55
2022/02/04 16:31:14;;;;;;;27.40;13.20;;;;;;;4.05;55.06;100778.20;117326;1183;24139;-58
2022/02/04 16:33:46;;;;;;;18.40;11.00;;;;;;;4.05;55.16;100774.04;117362;1185;21875;-56
2022/02/04 16:36:16;;;;;;;15.20;8.90;;;;;;;4.04;55.16;100766.02;117348;1185;21882;-58
2022/02/04 16:38:52;;;;;;;12.90;7.80;;;;;;;4.01;54.99;100756.94;117347;1186;22611;-58
2022/02/04 16:41:26;;;;;;;24.30;15.10;;;;;;;3.94;54.85;100753.52;117357;1182;22212;-58
2022/02/04 16:43:54;;;;;;;26.90;16.70;;;;;;;3.83;54.88;100750.31;117307;1186;22918;-56
2022/02/04 16:46:23;;;;;;;45.60;29.00;;;;;;;3.77;54.94;100747.23;117235;1182;21870;-55
2022/02/04 16:48:51;;;;;;;53.60;32.50;;;;;;;3.75;55.00;100752.91;117330;1184;23445;-58
2022/02/04 16:51:19;;;;;;;62.00;36.20;;;;;;;3.72;54.87;100757.04;117353;1185;23429;-55
2022/02/04 16:53:48;;;;;;;69.30;39.90;;;;;;;3.72;55.08;100764.48;118244;1185;22333;-55
2022/02/04 16:56:16;;;;;;;73.60;37.50;;;;;;;3.75;55.07;100765.93;118379;1184;23703;-57
2022/02/04 16:58:45;;;;;;;66.70;35.40;;;;;;;3.76;55.06;100765.09;117382;1186;22719;-58
2022/02/04 17:01:16;;;;;;;58.60;33.40;;;;;;;3.76;55.12;100764.58;117351;1185;23464;-55
2022/02/04 17:03:44;;;;;;;53.20;32.10;;;;;;;3.76;55.01;100763.36;117358;1182;24150;-58
2022/02/04 17:06:12;;;;;;;48.70;27.60;;;;;;;3.75;54.94;100759.70;117360;1182;23560;-57
2022/02/04 17:08:49;;;;;;;45.60;25.00;;;;;;;3.75;55.03;100759.87;117341;1185;23432;-55
2022/02/04 17:11:34;;;;;;;38.40;22.30;;;;;;;3.74;55.27;100760.89;117312;1184;24282;-59
2022/02/04 17:14:02;;;;;;;35.20;19.90;;;;;;;3.73;55.15;100754.45;117363;1185;22009;-57
2022/02/04 17:16:31;;;;;;;31.00;18.30;;;;;;;3.72;55.14;100755.98;117374;1182;22999;-55
2022/02/04 17:18:59;;;;;;;28.80;17.50;;;;;;;3.70;55.04;100755.95;117359;1185;22096;-55
2022/02/04 17:21:30;;;;;;;27.20;16.50;;;;;;;3.70;55.07;100755.77;117472;1183;23459;-58
2022/02/04 17:23:58;;;;;;;27.20;16.00;;;;;;;3.69;55.07;100755.23;117354;1182;21857;-58
2022/02/04 17:26:27;;;;;;;27.50;16.40;;;;;;;3.69;55.12;100754.37;117402;1183;24152;-58
2022/02/04 17:28:55;;;;;;;25.70;15.10;;;;;;;3.70;55.36;100755.77;117399;1185;23435;-58
2022/02/04 17:31:23;;;;;;;26.10;14.40;;;;;;;3.72;55.11;100754.42;117296;1182;23514;-55
2022/02/04 17:33:52;;;;;;;27.40;16.20;;;;;;;3.72;55.06;100748.52;117323;1185;23663;-55
2022/02/04 17:36:20;;;;;;;35.10;19.10;;;;;;;3.72;55.21;100746.79;117330;1185;22755;-55
2022/02/04 17:38:51;;;;;;;33.20;19.30;;;;;;;3.71;55.24;100747.45;117337;1182;23082;-57
2022/02/04 17:41:19;;;;;;;;;;;;;;;3.70;55.15;100750.03;117375;1185;21961;-57
2022/02/04 17:43:48;;;;;;;29.50;17.70;;;;;;;3.69;55.29;100748.80;117388;1185;22651;-55
2022/02/04 17:46:19;;;;;;;35.10;18.90;;;;;;;3.69;55.24;100752.98;117309;1185;23477;-57
2022/02/04 17:48:54;;;;;;;31.90;20.00;;;;;;;3.69;55.11;100753.33;117326;1188;21860;-55
2022/02/04 17:51:38;;;;;;;39.30;22.30;;;;;;;3.69;55.02;100754.53;117381;1186;21904;-55
2022/02/04 17:54:09;;;;;;;32.30;20.30;;;;;;;3.68;55.17;100753.12;117356;1182;23442;-55
2022/02/04 17:59:45;;;;;;;32.80;19.80;;;;;;;3.69;55.23;100761.48;117442;1185;21879;-57
2022/02/04 18:02:22;;;;;;;28.40;18.70;;;;;;;3.72;55.03;100766.40;117371;1185;21919;-57